Walnut Hill, Florida
Current Conditions -  °F | °C
As of 2:56 PM on Monday 24 Nov 2014 (Local Time) from KNSE Reporting Station
Broken Clouds Broken Clouds  
Wind Chill: 76°   Ceiling: 25000
Heat Index: 76°   Visibility: 10mi
Dew Point: 63°   Wind: 12mph
Humidity: 64%   Direction: 190°S
Pressure: 29.83"   Gusts: NA
Location:  30.8697°N, 87.4663°W
Report Text: KNSE 242056Z 19010KT 10SM FEW045 SCT100 BKN250 24/17 A2983 RMK AO2 SLP086 T02440172 53006 $
Loading
Personal Weather Stations






























Interactive Weather Map New forecast layout! Learn more

10-Day Weather Forecast

Advertisements
Track Severe Weather on mobile